Time;durP1;ratioP1;P1;durP2;ratioP2;P2;SDS_P1;SDS_P2;PMS_P1;PMS_P2;Temp;Humidity;BMP_temperature;BMP_pressure;BME280_temperature;BME280_humidity;BME280_pressure;Samples;Min_cycle;Max_cycle;Signal;HPM_P1;HPM_P2
2021/05/12 00:03:19;;;;;;;;;;;10.10;99.90;;;;;;8351019;22;20745;-67
2021/05/12 00:07:20;;;;;;;;;;;10.10;99.90;;;;;;8358944;28;19939;-67
2021/05/12 00:11:20;;;;;;;;;;;10.10;99.90;;;;;;8360203;28;19909;-67
2021/05/12 00:15:23;;;;;;;;;;;10.20;99.90;;;;;;8340141;28;19917;-67
2021/05/12 00:19:23;;;;;;;;;;;10.20;99.90;;;;;;8327206;28;19999;-67
2021/05/12 00:23:25;;;;;;;;;;;10.10;99.90;;;;;;8326412;28;19909;-67
2021/05/12 00:27:26;;;;;;;;;;;10.20;99.90;;;;;;8326702;28;19910;-67
2021/05/12 00:31:26;;;;;;;;;;;10.10;99.90;;;;;;8326700;28;19917;-67
2021/05/12 00:35:27;;;;;;;;;;;10.10;99.90;;;;;;8350868;28;19913;-67
2021/05/12 00:39:27;;;;;;;;;;;10.20;99.90;;;;;;8359643;28;19909;-67
2021/05/12 00:43:28;;;;;;;;;;;10.20;99.90;;;;;;8359210;28;19916;-67
2021/05/12 00:47:30;;;;;;;;;;;10.10;99.90;;;;;;8341421;28;19916;-67
2021/05/12 00:51:32;;;;;;;;;;;10.10;99.90;;;;;;8341563;28;19909;-67
2021/05/12 00:55:34;;;;;;;;;;;10.10;99.90;;;;;;8358850;28;19919;-67
2021/05/12 00:59:35;;;;;;;;;;;10.10;99.90;;;;;;8358570;28;19916;-67
2021/05/12 01:03:35;;;;;;;;;;;10.10;99.90;;;;;;8358360;28;20417;-67
2021/05/12 01:07:36;;;;;;;;;;;10.10;99.90;;;;;;8358811;28;20402;-67
2021/05/12 01:11:36;;;;;;;;;;;10.10;99.90;;;;;;8361736;28;20390;-67
2021/05/12 01:15:37;;;;;;;;;;;10.10;99.90;;;;;;8365523;28;19984;-66
2021/05/12 01:19:39;;;;;;;;;;;10.20;99.90;;;;;;8365077;28;19909;-67
2021/05/12 01:23:40;;;;;;;;;;;10.20;99.90;;;;;;8364740;28;19913;-67
2021/05/12 01:27:40;;;;;;;;;;;10.10;99.90;;;;;;8364632;28;20371;-67
2021/05/12 01:31:42;;;;;;;;;;;10.20;99.90;;;;;;8365032;28;19920;-67
2021/05/12 01:35:42;;;;;;;;;;;10.10;99.90;;;;;;8364615;28;20144;-67
2021/05/12 01:39:43;;;;;;;;;;;10.10;99.90;;;;;;8364709;28;20287;-66
2021/05/12 01:43:43;;;;;;;;;;;10.20;99.90;;;;;;8363864;28;20363;-67
2021/05/12 01:47:44;;;;;;;;;;;10.10;99.90;;;;;;8364475;28;20007;-67
2021/05/12 01:51:45;;;;;;;;;;;10.10;99.90;;;;;;8364847;28;19909;-67
2021/05/12 01:55:46;;;;;;;;;;;10.10;99.90;;;;;;8364351;28;19912;-67
2021/05/12 01:59:46;;;;;;;;;;;10.10;99.90;;;;;;8364589;28;20401;-67
2021/05/12 02:03:47;;;;;;;;;;;10.10;99.90;;;;;;8363989;28;19917;-67
2021/05/12 02:07:48;;;;;;;;;;;10.10;99.90;;;;;;8365043;28;20441;-67
2021/05/12 02:11:49;;;;;;;;;;;10.10;99.90;;;;;;8364039;28;19909;-67
2021/05/12 02:15:49;;;;;;;;;;;10.10;99.90;;;;;;8345580;28;19920;-66
2021/05/12 02:19:50;;;;;;;;;;;10.10;99.90;;;;;;8345625;28;19916;-66
2021/05/12 02:23:50;;;;;;;;;;;9.90;99.90;;;;;;8362863;28;20019;-67
2021/05/12 02:27:51;;;;;;;;;;;9.90;99.90;;;;;;8345688;28;20359;-67
2021/05/12 02:31:52;;;;;;;;;;;10.00;99.90;;;;;;8362350;28;19913;-67
2021/05/12 02:35:52;;;;;;;;;;;10.00;99.90;;;;;;8344507;28;19919;-67
2021/05/12 02:39:53;;;;;;;;;;;10.10;99.90;;;;;;8344686;28;19909;-67
2021/05/12 02:43:53;;;;;;;;;;;10.00;99.90;;;;;;8362227;28;19920;-67
2021/05/12 02:47:57;;;;;;;;;;;9.90;99.90;;;;;;8344666;28;19908;-67
2021/05/12 02:51:58;;;;;;;;;;;9.90;99.90;;;;;;8362111;28;20000;-67
2021/05/12 02:55:58;;;;;;;;;;;9.90;99.90;;;;;;8362896;28;19908;-67
2021/05/12 02:59:59;;;;;;;;;;;10.00;99.90;;;;;;8361845;28;19909;-67
2021/05/12 03:03:59;;;;;;;;;;;10.00;99.90;;;;;;8361681;28;19996;-67
2021/05/12 03:08:00;;;;;;;;;;;10.00;99.90;;;;;;8362014;28;19932;-67
2021/05/12 03:12:00;;;;;;;;;;;10.10;99.90;;;;;;8361680;28;20011;-67
2021/05/12 03:16:01;;;;;;;;;;;10.00;99.90;;;;;;8361607;28;19912;-67
2021/05/12 03:20:03;;;;;;;;;;;10.00;99.90;;;;;;8343844;28;20402;-67
2021/05/12 03:24:04;;;;;;;;;;;10.10;99.90;;;;;;8361115;28;20279;-67
2021/05/12 03:28:05;;;;;;;;;;;10.00;99.90;;;;;;8335725;28;19920;-67
2021/05/12 03:32:06;;;;;;;;;;;10.00;99.90;;;;;;8328161;28;20008;-67
2021/05/12 03:36:07;;;;;;;;;;;10.00;99.90;;;;;;8356613;28;20003;-67
2021/05/12 03:40:08;;;;;;;;;;;10.00;99.90;;;;;;8354747;28;19919;-67
2021/05/12 03:44:10;;;;;;;;;;;10.10;99.90;;;;;;8359380;28;19913;-67
2021/05/12 03:48:11;;;;;;;;;;;10.00;99.90;;;;;;8358896;28;19913;-67
2021/05/12 03:52:11;;;;;;;;;;;10.10;99.90;;;;;;8359679;28;20034;-67
2021/05/12 03:56:12;;;;;;;;;;;10.20;99.90;;;;;;8329914;28;19917;-68
2021/05/12 04:00:13;;;;;;;;;;;10.10;99.90;;;;;;8327397;28;19959;-68
2021/05/12 04:04:14;;;;;;;;;;;10.00;99.90;;;;;;8323216;28;19943;-68
2021/05/12 04:08:15;;;;;;;;;;;10.20;99.90;;;;;;8360069;28;20000;-68
2021/05/12 04:12:15;;;;;;;;;;;10.10;99.90;;;;;;8316245;28;19920;-68
2021/05/12 04:16:16;;;;;;;;;;;10.10;99.90;;;;;;8327244;28;19952;-67
2021/05/12 04:20:17;;;;;;;;;;;10.20;99.90;;;;;;8326513;28;20092;-67
2021/05/12 04:24:18;;;;;;;;;;;10.20;99.90;;;;;;8328564;28;19913;-68
2021/05/12 04:28:18;;;;;;;;;;;10.20;99.90;;;;;;8325477;28;19909;-67
2021/05/12 04:32:18;;;;;;;;;;;10.30;99.90;;;;;;8349729;28;19932;-68
2021/05/12 04:36:19;;;;;;;;;;;10.30;99.90;;;;;;8357318;28;19941;-67
2021/05/12 04:40:20;;;;;;;;;;;10.30;99.90;;;;;;8348096;28;19919;-68
2021/05/12 04:44:20;;;;;;;;;;;10.30;99.90;;;;;;8356310;28;20007;-68
2021/05/12 04:48:21;;;;;;;;;;;10.40;99.90;;;;;;8358717;28;19999;-70
2021/05/12 04:52:21;;;;;;;;;;;10.30;99.90;;;;;;8340769;28;19917;-71
2021/05/12 04:56:22;;;;;;;;;;;10.20;99.90;;;;;;8358391;28;19928;-72
2021/05/12 05:00:22;;;;;;;;;;;10.30;99.90;;;;;;8358242;28;19913;-70
2021/05/12 05:04:24;;;;;;;;;;;10.30;99.90;;;;;;8357496;28;19979;-71
2021/05/12 05:08:25;;;;;;;;;;;10.50;99.90;;;;;;8358556;28;19916;-71
2021/05/12 05:12:25;;;;;;;;;;;10.40;99.90;;;;;;8357888;28;19916;-64
2021/05/12 05:16:27;;;;;;;;;;;10.40;99.90;;;;;;8357571;28;20449;-65
2021/05/12 05:20:29;;;;;;;;;;;10.40;99.90;;;;;;8357738;28;20020;-64
2021/05/12 05:24:29;;;;;;;;;;;10.40;99.90;;;;;;8337763;28;19908;-65
2021/05/12 05:28:30;;;;;;;;;;;10.50;99.90;;;;;;8339582;28;20295;-64
2021/05/12 05:32:31;;;;;;;;;;;10.50;99.90;;;;;;8346283;28;19940;-65
2021/05/12 05:36:31;;;;;;;;;;;10.50;99.90;;;;;;8333646;28;19924;-64
2021/05/12 05:40:31;;;;;;;;;;;10.80;99.90;;;;;;8349755;28;20279;-63
2021/05/12 05:44:32;;;;;;;;;;;10.80;99.90;;;;;;8335325;28;20418;-64
2021/05/12 05:48:33;;;;;;;;;;;10.80;99.90;;;;;;8328070;28;19928;-64
2021/05/12 05:52:33;;;;;;;;;;;10.70;99.90;;;;;;8340071;28;19932;-63
2021/05/12 05:56:34;;;;;;;;;;;10.70;99.90;;;;;;8340074;28;19971;-64
2021/05/12 06:00:34;;;;;;;;;;;10.80;99.90;;;;;;8330050;28;19913;-64
2021/05/12 06:04:35;;;;;;;;;;;10.60;99.90;;;;;;8355019;28;19943;-63
2021/05/12 06:08:35;;;;;;;;;;;10.50;99.90;;;;;;8363190;28;19954;-63
2021/05/12 06:12:36;;;;;;;;;;;10.40;99.90;;;;;;8362778;28;19936;-64
2021/05/12 06:16:36;;;;;;;;;;;10.60;99.90;;;;;;8360426;28;20295;-64
2021/05/12 06:20:37;;;;;;;;;;;10.60;99.90;;;;;;8344702;28;19917;-63
2021/05/12 06:24:38;;;;;;;;;;;10.80;99.90;;;;;;8356536;28;19912;-64
2021/05/12 06:28:42;;;;;;;;;;;10.60;99.90;;;;;;8359721;28;20386;-63
2021/05/12 06:32:43;;;;;;;;;;;10.60;99.90;;;;;;8341180;28;20011;-64
2021/05/12 06:36:44;;;;;;;;;;;10.60;99.90;;;;;;8359328;28;19909;-64
2021/05/12 06:40:44;;;;;;;;;;;10.70;99.90;;;;;;8337422;28;19952;-64
2021/05/12 06:44:45;;;;;;;;;;;10.70;99.90;;;;;;8354444;28;19920;-64
2021/05/12 06:48:45;;;;;;;;;;;10.70;99.90;;;;;;8342314;28;19960;-63
2021/05/12 06:52:55;;;;;;;;;;;10.60;99.90;;;;;;8354030;28;19917;-63
2021/05/12 06:56:56;;;;;;;;;;;10.50;99.90;;;;;;8361801;28;20411;-64
2021/05/12 07:00:56;;;;;;;;;;;10.30;99.90;;;;;;8334970;28;19963;-63
2021/05/12 07:04:57;;;;;;;;;;;10.20;99.90;;;;;;8356465;28;19917;-64
2021/05/12 07:08:57;;;;;;;;;;;10.30;99.90;;;;;;8342293;28;20043;-64
2021/05/12 07:12:58;;;;;;;;;;;10.30;99.90;;;;;;8344422;28;20732;-64
2021/05/12 07:16:58;;;;;;;;;;;10.40;99.90;;;;;;8328094;28;19921;-65
2021/05/12 07:20:59;;;;;;;;;;;10.30;99.90;;;;;;8335714;28;19913;-63
2021/05/12 07:25:00;;;;;;;;;;;10.50;99.90;;;;;;8356576;28;19946;-64
2021/05/12 07:29:02;;;;;;;;;;;10.60;99.90;;;;;;8332949;28;19913;-63
2021/05/12 07:33:03;;;;;;;;;;;10.60;99.90;;;;;;8314742;28;19923;-64
2021/05/12 07:37:03;;;;;;;;;;;10.70;99.90;;;;;;8352291;28;19917;-63
2021/05/12 07:41:04;;;;;;;;;;;10.60;99.90;;;;;;8358631;28;19920;-64
2021/05/12 07:45:05;;;;;;;;;;;10.40;99.90;;;;;;8356703;28;19913;-65
2021/05/12 07:49:06;;;;;;;;;;;10.40;99.90;;;;;;8340142;28;20509;-63
2021/05/12 07:53:07;;;;;;;;;;;10.40;99.90;;;;;;8351299;28;20387;-63
2021/05/12 07:57:08;;;;;;;;;;;10.40;99.90;;;;;;8341655;28;19916;-64
2021/05/12 08:01:25;;;;;;;;;;;10.40;99.90;;;;;;8359555;28;19909;-63
2021/05/12 08:05:26;;;;;;;;;;;10.70;99.90;;;;;;8351057;28;19916;-63
2021/05/12 08:09:26;;;;;;;;;;;10.80;99.90;;;;;;8349746;28;20421;-63
2021/05/12 08:13:27;;;;;;;;;;;10.70;99.90;;;;;;8352010;28;19921;-64
2021/05/12 08:17:27;;;;;;;;;;;10.80;99.90;;;;;;8357667;28;19913;-63
2021/05/12 08:21:28;;;;;;;;;;;10.70;99.90;;;;;;8357868;28;20002;-63
2021/05/12 08:25:28;;;;;;;;;;;10.70;99.90;;;;;;8357735;28;19995;-64
2021/05/12 08:29:35;;;;;;;;;;;10.80;99.90;;;;;;8357566;28;19913;-63
2021/05/12 08:33:36;;;;;;;;;;;11.10;99.90;;;;;;8338113;28;19943;-63
2021/05/12 08:37:36;;;;;;;;;;;10.90;99.90;;;;;;8328683;28;19913;-64
2021/05/12 08:41:38;;;;;;;;;;;10.80;99.90;;;;;;8341869;28;19921;-64
2021/05/12 08:45:39;;;;;;;;;;;10.60;99.90;;;;;;8333176;28;19913;-63
2021/05/12 08:49:40;;;;;;;;;;;10.40;99.90;;;;;;8341909;28;19920;-63
2021/05/12 08:53:41;;;;;;;;;;;10.20;99.90;;;;;;8341394;28;19944;-64
2021/05/12 08:57:41;;;;;;;;;;;10.20;99.90;;;;;;8331294;28;19912;-63
2021/05/12 09:01:42;;;;;;;;;;;10.10;99.90;;;;;;8319868;28;19917;-63
2021/05/12 09:05:42;;;;;;;;;;;10.10;99.90;;;;;;8353532;28;20391;-63
2021/05/12 09:09:43;;;;;;;;;;;10.10;99.90;;;;;;8357055;28;19917;-62
2021/05/12 09:13:47;;;;;;;;;;;10.20;99.90;;;;;;8348350;28;19943;-62
2021/05/12 09:17:49;;;;;;;;;;;10.30;99.90;;;;;;8357381;28;19909;-64
2021/05/12 09:21:53;;;;;;;;;;;10.40;99.90;;;;;;8351429;28;19919;-62
2021/05/12 09:25:56;;;;;;;;;;;10.30;99.90;;;;;;8352100;28;20296;-64
2021/05/12 09:29:59;;;;;;;;;;;10.30;99.90;;;;;;8356541;28;19913;-64
2021/05/12 09:34:00;;;;;;;;;;;10.30;99.90;;;;;;8340130;28;19917;-64
2021/05/12 09:38:00;;;;;;;;;;;10.30;99.90;;;;;;8356213;28;19920;-63
2021/05/12 09:42:15;;;;;;;;;;;10.30;99.90;;;;;;8363431;28;19912;-64
2021/05/12 09:46:15;;;;;;;;;;;10.40;99.90;;;;;;8362902;28;19956;-63
2021/05/12 09:50:17;;;;;;;;;;;10.50;99.90;;;;;;8358060;28;19966;-64
2021/05/12 09:54:19;;;;;;;;;;;10.70;99.90;;;;;;8352731;28;19924;-64
2021/05/12 09:58:23;;;;;;;;;;;10.80;99.90;;;;;;8342674;28;19920;-64
2021/05/12 10:02:23;;;;;;;;;;;10.90;99.90;;;;;;8353654;28;20490;-63
2021/05/12 10:06:27;;;;;;;;;;;10.70;99.90;;;;;;8352264;28;19970;-63
2021/05/12 10:10:35;;;;;;;;;;;10.60;99.90;;;;;;8352041;28;19921;-63
2021/05/12 10:14:36;;;;;;;;;;;10.70;99.90;;;;;;8358645;28;19948;-64
2021/05/12 10:18:37;;;;;;;;;;;10.60;99.90;;;;;;8362655;28;19962;-63
2021/05/12 10:22:37;;;;;;;;;;;10.90;99.90;;;;;;8362214;28;19913;-64
2021/05/12 10:26:45;;;;;;;;;;;11.10;99.90;;;;;;8354894;28;19921;-64
2021/05/12 10:30:49;;;;;;;;;;;11.30;99.90;;;;;;8352486;28;20268;-64
2021/05/12 10:35:06;;;;;;;;;;;11.40;99.90;;;;;;8352289;28;20399;-64
2021/05/12 10:39:06;;;;;;;;;;;11.50;99.90;;;;;;8355496;28;19958;-64
2021/05/12 10:43:23;;;;;;;;;;;11.60;99.90;;;;;;8357887;28;19912;-63
2021/05/12 10:47:35;;;;;;;;;;;11.30;99.90;;;;;;8360976;28;20384;-63
2021/05/12 10:51:46;;;;;;;;;;;11.20;99.90;;;;;;8358567;28;19913;-63
2021/05/12 10:56:05;;;;;;;;;;;11.30;99.90;;;;;;8360510;28;20296;-63
2021/05/12 11:00:06;;;;;;;;;;;11.20;99.90;;;;;;8356644;28;19928;-63
2021/05/12 11:04:07;;;;;;;;;;;11.20;99.90;;;;;;8345919;28;19917;-64
2021/05/12 11:08:15;;;;;;;;;;;11.00;99.90;;;;;;8354330;28;20658;-63
2021/05/12 11:12:19;;;;;;;;;;;11.30;99.90;;;;;;8332218;28;19913;-63
2021/05/12 11:16:21;;;;;;;;;;;11.30;99.90;;;;;;8343682;28;20333;-65
2021/05/12 11:20:24;;;;;;;;;;;11.50;99.90;;;;;;8347648;28;19909;-65
2021/05/12 11:24:24;;;;;;;;;;;11.60;99.90;;;;;;8356465;28;19967;-64
2021/05/12 11:28:58;;;;;;;;;;;11.40;99.90;;;;;;8359379;28;20366;-64
2021/05/12 11:32:54;;;;;;;;;;;11.50;99.90;;;;;;8360044;28;19960;-64
2021/05/12 11:37:06;;;;;;;;;;;11.50;99.90;;;;;;8354291;28;19913;-65
2021/05/12 11:41:16;;;;;;;;;;;11.50;99.90;;;;;;8360502;28;19913;-65
2021/05/12 11:45:18;;;;;;;;;;;11.50;99.90;;;;;;8334371;28;20296;-65
2021/05/12 11:49:20;;;;;;;;;;;11.80;99.90;;;;;;8318140;28;20004;-66
2021/05/12 11:53:20;;;;;;;;;;;11.90;99.90;;;;;;8346841;28;20298;-66
2021/05/12 11:57:21;;;;;;;;;;;11.80;99.90;;;;;;8351349;28;19913;-67
2021/05/12 12:01:22;;;;;;;;;;;11.70;99.90;;;;;;8341139;28;19916;-65
2021/05/12 12:05:22;;;;;;;;;;;11.70;99.90;;;;;;8354986;28;19928;-65
2021/05/12 12:09:23;;;;;;;;;;;11.80;99.90;;;;;;8355680;28;19920;-65
2021/05/12 12:13:24;;;;;;;;;;;11.80;99.90;;;;;;8356628;28;19924;-64
2021/05/12 12:17:28;;;;;;;;;;;11.60;99.90;;;;;;8353996;28;19917;-64
2021/05/12 12:21:31;;;;;;;;;;;11.50;99.90;;;;;;8340808;28;19928;-65
2021/05/12 12:25:53;;;;;;;;;;;11.10;99.90;;;;;;8339759;28;20371;-64
2021/05/12 12:29:52;;;;;;;;;;;11.10;99.90;;;;;;8355466;28;19956;-65
2021/05/12 12:34:13;;;;;;;;;;;10.90;99.90;;;;;;8359197;28;20011;-64
2021/05/12 12:38:14;;;;;;;;;;;10.90;99.90;;;;;;8358442;28;20071;-65
2021/05/12 12:42:17;;;;;;;;;;;10.80;99.90;;;;;;8359369;28;19913;-64
2021/05/12 12:46:24;;;;;;;;;;;11.00;99.90;;;;;;8353094;28;19913;-65
2021/05/12 12:50:26;;;;;;;;;;;11.00;99.90;;;;;;8341935;28;19909;-64
2021/05/12 12:54:34;;;;;;;;;;;11.20;99.90;;;;;;8346701;28;20011;-65
2021/05/12 12:58:34;;;;;;;;;;;11.30;99.90;;;;;;8332826;28;19909;-65
2021/05/12 13:02:35;;;;;;;;;;;11.40;99.90;;;;;;8357792;28;19952;-64
2021/05/12 13:06:36;;;;;;;;;;;11.50;99.90;;;;;;8360590;28;19971;-65
2021/05/12 13:10:39;;;;;;;;;;;11.40;99.90;;;;;;8364469;28;20471;-65
2021/05/12 13:14:39;;;;;;;;;;;11.30;99.90;;;;;;8364521;28;19958;-64
2021/05/12 13:18:47;;;;;;;;;;;11.30;99.90;;;;;;8338565;28;19939;-64
2021/05/12 13:22:59;;;;;;;;;;;11.30;99.90;;;;;;8354580;28;19997;-64
2021/05/12 13:27:04;;;;;;;;;;;11.50;99.90;;;;;;8342268;28;19912;-65
2021/05/12 13:31:05;;;;;;;;;;;11.60;99.90;;;;;;8354231;28;19913;-64
2021/05/12 13:35:05;;;;;;;;;;;11.60;99.90;;;;;;8338385;28;19916;-64
2021/05/12 13:39:06;;;;;;;;;;;11.50;99.90;;;;;;8358289;28;20002;-64
2021/05/12 13:43:07;;;;;;;;;;;11.20;99.90;;;;;;8361965;28;19919;-65
2021/05/12 13:47:07;;;;;;;;;;;11.20;99.90;;;;;;8363220;28;19912;-64
2021/05/12 13:51:07;;;;;;;;;;;11.20;99.90;;;;;;8363232;28;19913;-63
2021/05/12 13:55:15;;;;;;;;;;;11.30;99.90;;;;;;8362750;28;19921;-66
2021/05/12 14:03:34;;;;;;;;;;;11.30;99.90;;;;;;8343167;28;19984;-63
2021/05/12 14:07:39;;;;;;;;;;;11.40;99.90;;;;;;8359050;28;19920;-64
2021/05/12 14:11:49;;;;;;;;;;;11.40;99.90;;;;;;8359603;28;20502;-64
2021/05/12 14:20:08;;;;;;;;;;;12.00;99.90;;;;;;8344644;28;19920;-64
2021/05/12 14:24:08;;;;;;;;;;;11.90;99.90;;;;;;8339271;28;19917;-63
2021/05/12 14:28:09;;;;;;;;;;;12.20;99.90;;;;;;8343033;28;20418;-64
2021/05/12 14:32:10;;;;;;;;;;;12.20;99.90;;;;;;8361578;28;20272;-63
2021/05/12 14:36:11;;;;;;;;;;;12.30;99.90;;;;;;8361975;28;19913;-64
2021/05/12 14:40:11;;;;;;;;;;;12.30;99.90;;;;;;8361562;28;19947;-62
2021/05/12 14:44:12;;;;;;;;;;;12.70;99.90;;;;;;8357676;28;19923;-63
2021/05/12 14:48:19;;;;;;;;;;;13.00;99.90;;;;;;8358443;28;19924;-64
2021/05/12 15:08:44;;;;;;;;;;;13.80;99.90;;;;;;8358956;28;19913;-64
2021/05/12 15:12:44;;;;;;;;;;;13.20;99.90;;;;;;8331644;28;19990;-64
2021/05/12 15:16:45;;;;;;;;;;;13.00;99.90;;;;;;8341992;28;20390;-63
2021/05/12 15:20:46;;;;;;;;;;;13.20;99.90;;;;;;8349763;28;19916;-66
2021/05/12 15:24:47;;;;;;;;;;;13.30;99.90;;;;;;8343055;28;19947;-69
2021/05/12 15:28:47;;;;;;;;;;;13.80;99.90;;;;;;8338210;28;19913;-68
2021/05/12 15:32:48;;;;;;;;;;;13.50;99.90;;;;;;8357480;28;19919;-69
2021/05/12 15:36:49;;;;;;;;;;;13.40;99.90;;;;;;8359150;28;19920;-69
2021/05/12 15:40:50;;;;;;;;;;;13.40;99.90;;;;;;8335731;28;19917;-69
2021/05/12 15:44:50;;;;;;;;;;;13.30;99.90;;;;;;8358421;28;19908;-68
2021/05/12 15:48:51;;;;;;;;;;;13.20;99.90;;;;;;8342912;28;19913;-69
2021/05/12 15:52:51;;;;;;;;;;;13.20;99.90;;;;;;8360202;28;19912;-69
2021/05/12 15:56:52;;;;;;;;;;;13.30;99.90;;;;;;8360776;28;19955;-69
2021/05/12 16:00:52;;;;;;;;;;;13.30;99.90;;;;;;8337713;28;20362;-68
2021/05/12 16:04:53;;;;;;;;;;;13.10;99.90;;;;;;8328574;28;20060;-68
2021/05/12 16:08:54;;;;;;;;;;;13.00;99.90;;;;;;8360054;28;19936;-68
2021/05/12 16:12:54;;;;;;;;;;;13.20;99.90;;;;;;8355962;28;19917;-68
2021/05/12 16:17:02;;;;;;;;;;;13.20;99.90;;;;;;8333162;28;19919;-67
2021/05/12 16:21:04;;;;;;;;;;;13.20;99.90;;;;;;8350068;28;19953;-69
2021/05/12 16:25:06;;;;;;;;;;;13.10;99.90;;;;;;8353359;28;19913;-70
2021/05/12 16:29:06;;;;;;;;;;;12.80;99.90;;;;;;8316794;28;19920;-70
2021/05/12 16:33:07;;;;;;;;;;;12.80;99.90;;;;;;8358043;28;19962;-70
2021/05/12 16:37:07;;;;;;;;;;;12.80;99.90;;;;;;8358977;28;19987;-70
2021/05/12 16:41:08;;;;;;;;;;;12.80;99.90;;;;;;8345132;28;20030;-70
2021/05/12 16:45:09;;;;;;;;;;;13.00;99.90;;;;;;8338233;28;19921;-67
2021/05/12 16:49:09;;;;;;;;;;;13.10;99.90;;;;;;8321421;28;19913;-67
2021/05/12 16:53:11;;;;;;;;;;;12.90;99.90;;;;;;8333670;28;20391;-67
2021/05/12 16:57:12;;;;;;;;;;;12.90;99.90;;;;;;8342318;28;19921;-67
2021/05/12 17:01:13;;;;;;;;;;;12.90;99.90;;;;;;8325162;28;19927;-67
2021/05/12 17:05:14;;;;;;;;;;;12.90;99.90;;;;;;8325098;28;19951;-66
2021/05/12 17:09:16;;;;;;;;;;;12.50;99.90;;;;;;8323084;28;19967;-67
2021/05/12 17:13:17;;;;;;;;;;;12.50;99.90;;;;;;8321816;28;19920;-67
2021/05/12 17:17:18;;;;;;;;;;;12.50;99.90;;;;;;8319509;28;19920;-67
2021/05/12 17:21:18;;;;;;;;;;;12.60;99.90;;;;;;8304473;28;19917;-66
2021/05/12 17:25:19;;;;;;;;;;;12.50;99.90;;;;;;8327419;28;19917;-67
2021/05/12 17:29:20;;;;;;;;;;;12.20;99.90;;;;;;8318208;28;19948;-67
2021/05/12 17:33:21;;;;;;;;;;;12.00;99.90;;;;;;8324588;28;20295;-67
2021/05/12 17:37:21;;;;;;;;;;;12.00;99.90;;;;;;8329005;28;19913;-67
2021/05/12 17:41:22;;;;;;;;;;;11.70;99.90;;;;;;8341549;28;20537;-68
2021/05/12 17:45:23;;;;;;;;;;;11.80;99.90;;;;;;8337373;28;19999;-67
2021/05/12 17:49:23;;;;;;;;;;;12.00;99.90;;;;;;8340221;28;19921;-67
2021/05/12 17:53:24;;;;;;;;;;;12.00;99.90;;;;;;8340368;28;19960;-67
2021/05/12 17:57:24;;;;;;;;;;;12.00;99.90;;;;;;8340285;28;21404;-67
2021/05/12 18:01:25;;;;;;;;;;;12.10;99.90;;;;;;8330712;28;19921;-66
2021/05/12 18:05:31;;;;;;;;;;;12.10;99.90;;;;;;8354459;28;19959;-65
2021/05/12 18:09:31;;;;;;;;;;;12.20;99.90;;;;;;8357516;28;19920;-65
2021/05/12 18:13:42;;;;;;;;;;;11.90;99.90;;;;;;8346136;28;19921;-65
2021/05/12 18:17:43;;;;;;;;;;;11.70;99.90;;;;;;8339712;28;19996;-64
2021/05/12 18:21:43;;;;;;;;;;;11.50;99.90;;;;;;8339157;28;20311;-66
2021/05/12 18:25:44;;;;;;;;;;;11.50;99.90;;;;;;8342700;28;20427;-64
2021/05/12 18:29:44;;;;;;;;;;;11.20;99.90;;;;;;8330420;28;19981;-65
2021/05/12 18:33:47;;;;;;;;;;;10.90;99.90;;;;;;8346864;28;20387;-65
2021/05/12 18:38:02;;;;;;;;;;;10.70;99.90;;;;;;8350476;28;20303;-65
2021/05/12 18:42:03;;;;;;;;;;;10.50;99.90;;;;;;8342129;28;19913;-66
2021/05/12 18:46:03;;;;;;;;;;;10.40;99.90;;;;;;8340279;28;20053;-68
2021/05/12 18:50:05;;;;;;;;;;;10.40;99.90;;;;;;8357147;28;19924;-65
2021/05/12 18:54:05;;;;;;;;;;;10.30;99.90;;;;;;8355714;28;19924;-64
2021/05/12 18:58:06;;;;;;;;;;;10.20;99.90;;;;;;8357691;28;19956;-66
2021/05/12 19:02:07;;;;;;;;;;;10.10;99.90;;;;;;8339796;28;19913;-64
2021/05/12 19:06:21;;;;;;;;;;;10.10;99.90;;;;;;8343727;28;19917;-65
2021/05/12 19:10:35;;;;;;;;;;;10.10;99.90;;;;;;8355745;28;19917;-65
2021/05/12 19:14:44;;;;;;;;;;;10.10;99.90;;;;;;8354750;28;19917;-65
2021/05/12 19:19:04;;;;;;;;;;;10.00;99.90;;;;;;8335254;28;19917;-65
2021/05/12 19:23:18;;;;;;;;;;;9.90;99.90;;;;;;8328199;28;20010;-66
2021/05/12 19:27:25;;;;;;;;;;;10.00;99.90;;;;;;8324018;28;20443;-66
2021/05/12 19:40:13;;;;;;;;;;;9.80;99.90;;;;;;8341957;28;20015;-69
2021/05/12 19:44:14;;;;;;;;;;;9.70;99.90;;;;;;8331862;28;20494;-69
2021/05/12 19:48:15;;;;;;;;;;;9.70;99.90;;;;;;8322905;28;19923;-69
2021/05/12 19:52:15;;;;;;;;;;;9.50;99.90;;;;;;8335167;28;20286;-69
2021/05/12 19:56:31;;;;;;;;;;;9.40;99.90;;;;;;8338090;28;20015;-69
2021/05/12 20:00:31;;;;;;;;;;;9.40;99.90;;;;;;8345400;28;19921;-71
2021/05/12 20:04:37;;;;;;;;;;;9.30;99.90;;;;;;8344451;28;19947;-72
2021/05/12 20:13:04;;;;;;;;;;;9.50;99.90;;;;;;8335178;28;20016;-68
2021/05/12 20:17:06;;;;;;;;;;;9.50;99.90;;;;;;8330575;28;19917;-68
2021/05/12 20:21:06;;;;;;;;;;;9.40;99.90;;;;;;8351543;28;20462;-68
2021/05/12 20:25:07;;;;;;;;;;;9.40;99.90;;;;;;8353911;28;19920;-68
2021/05/12 20:29:08;;;;;;;;;;;9.40;99.90;;;;;;8335965;28;19920;-68
2021/05/12 20:33:21;;;;;;;;;;;9.40;99.90;;;;;;8333456;28;20019;-67
2021/05/12 20:37:22;;;;;;;;;;;9.40;99.90;;;;;;8319613;28;19917;-68
2021/05/12 20:41:22;;;;;;;;;;;9.30;99.90;;;;;;8335327;28;20383;-68
2021/05/12 20:45:23;;;;;;;;;;;9.50;99.90;;;;;;8320743;28;20085;-67
2021/05/12 20:49:24;;;;;;;;;;;9.80;99.90;;;;;;8358888;28;19909;-68
2021/05/12 20:53:24;;;;;;;;;;;9.30;99.90;;;;;;8341064;28;19913;-67
2021/05/12 20:57:25;;;;;;;;;;;9.10;99.90;;;;;;8359123;28;19909;-68
2021/05/12 21:01:26;;;;;;;;;;;9.00;99.90;;;;;;8341158;28;20000;-68
2021/05/12 21:05:26;;;;;;;;;;;8.90;99.90;;;;;;8358130;28;19923;-68
2021/05/12 21:09:27;;;;;;;;;;;8.80;99.90;;;;;;8358629;28;19916;-68
2021/05/12 21:13:28;;;;;;;;;;;8.80;99.90;;;;;;8358420;28;19962;-68
2021/05/12 21:17:28;;;;;;;;;;;8.80;99.90;;;;;;8341266;28;19913;-68
2021/05/12 21:21:35;;;;;;;;;;;8.90;99.90;;;;;;8359118;28;19909;-68
2021/05/12 21:25:36;;;;;;;;;;;8.90;99.90;;;;;;8358621;28;19909;-67
2021/05/12 21:29:36;;;;;;;;;;;8.90;99.90;;;;;;8363555;28;19916;-68
2021/05/12 21:33:37;;;;;;;;;;;8.80;99.90;;;;;;8364969;28;19912;-68
2021/05/12 21:37:37;;;;;;;;;;;8.60;99.90;;;;;;8347422;28;19909;-67
2021/05/12 21:41:38;;;;;;;;;;;8.50;99.90;;;;;;8364996;28;20116;-68
2021/05/12 21:45:39;;;;;;;;;;;8.50;99.90;;;;;;8364677;28;20375;-68
2021/05/12 21:49:40;;;;;;;;;;;8.60;99.90;;;;;;8364693;28;19916;-68
2021/05/12 21:53:42;;;;;;;;;;;8.80;99.90;;;;;;8364200;28;20364;-68
2021/05/12 21:57:42;;;;;;;;;;;8.70;99.90;;;;;;8346878;28;19908;-68
2021/05/12 22:01:42;;;;;;;;;;;8.70;99.90;;;;;;8364207;28;20407;-69
2021/05/12 22:27:08;;;;;;;;;;;9.00;99.90;;;;;;8363515;28;19909;-68
2021/05/12 22:31:08;;;;;;;;;;;9.00;99.90;;;;;;8363400;28;19909;-68
2021/05/12 22:35:10;;;;;;;;;;;8.90;99.90;;;;;;8362836;28;19913;-69
2021/05/12 22:39:10;;;;;;;;;;;8.80;99.90;;;;;;8363180;28;20019;-68
2021/05/12 22:43:11;;;;;;;;;;;8.70;99.90;;;;;;8344992;28;20035;-68
2021/05/12 22:47:11;;;;;;;;;;;8.70;99.90;;;;;;8345020;28;20325;-68
2021/05/12 22:51:12;;;;;;;;;;;8.90;99.90;;;;;;8362745;28;19967;-68
2021/05/12 22:55:29;;;;;;;;;;;8.90;99.90;;;;;;8362320;28;20414;-68
2021/05/12 22:59:33;;;;;;;;;;;8.90;99.90;;;;;;8344626;28;19909;-68
2021/05/12 23:03:34;;;;;;;;;;;8.80;99.90;;;;;;8362068;28;20294;-68
2021/05/12 23:07:34;;;;;;;;;;;8.80;99.90;;;;;;8362404;28;19908;-69
2021/05/12 23:11:35;;;;;;;;;;;8.60;99.90;;;;;;8344277;28;19962;-68
2021/05/12 23:15:35;;;;;;;;;;;8.80;99.90;;;;;;8361492;28;20401;-68
2021/05/12 23:19:36;;;;;;;;;;;8.60;99.90;;;;;;8361956;28;19986;-68
2021/05/12 23:23:58;;;;;;;;;;;8.50;99.90;;;;;;8344011;28;19992;-68
2021/05/12 23:27:59;;;;;;;;;;;8.60;99.90;;;;;;8361781;28;19908;-68
2021/05/12 23:31:59;;;;;;;;;;;8.50;99.90;;;;;;8361820;28;19908;-69
2021/05/12 23:36:00;;;;;;;;;;;8.40;99.90;;;;;;8361052;28;19920;-69
2021/05/12 23:40:02;;;;;;;;;;;8.40;99.90;;;;;;8343406;28;19909;-68
2021/05/12 23:44:03;;;;;;;;;;;8.50;99.90;;;;;;8360942;28;19923;-68
2021/05/12 23:48:06;;;;;;;;;;;8.60;99.90;;;;;;8361285;28;20003;-68
2021/05/12 23:52:07;;;;;;;;;;;8.50;99.90;;;;;;8360278;28;20433;-68
2021/05/12 23:56:07;;;;;;;;;;;8.20;99.90;;;;;;8360955;28;19912;-68
